createdAt,value
2022-09-28T00:01:20.692Z,9.64
2022-09-28T00:03:48.981Z,9.74
2022-09-28T00:06:20.024Z,9.63
2022-09-28T00:08:47.106Z,9.71
2022-09-28T00:11:15.654Z,9.63
2022-09-28T00:13:43.348Z,9.64
2022-09-28T00:16:16.918Z,9.45
2022-09-28T00:18:44.834Z,9.53
2022-09-28T00:21:18.012Z,9.54
2022-09-28T00:24:04.069Z,9.28
2022-09-28T00:26:32.896Z,9.49
2022-09-28T00:29:01.510Z,9.38
2022-09-28T00:31:31.721Z,9.56
2022-09-28T00:34:00.472Z,9.46
2022-09-28T00:36:30.169Z,9.72
2022-09-28T00:38:58.302Z,9.86
2022-09-28T00:41:27.397Z,9.88
2022-09-28T00:44:15.200Z,9.60
2022-09-28T00:46:42.106Z,9.80
2022-09-28T00:49:16.089Z,9.92
2022-09-28T00:51:45.512Z,10.00
2022-09-28T00:54:14.702Z,10.07
2022-09-28T00:56:44.512Z,9.96
2022-09-28T00:59:11.370Z,9.74
2022-09-28T01:01:38.996Z,9.72
2022-09-28T01:04:06.893Z,9.64
2022-09-28T01:06:38.142Z,9.38
2022-09-28T01:09:10.055Z,9.41
2022-09-28T01:11:38.489Z,9.35
2022-09-28T01:14:13.003Z,9.34
2022-09-28T01:17:08.452Z,9.32
2022-09-28T01:20:06.606Z,9.28
2022-09-28T01:22:47.636Z,9.30
2022-09-28T01:25:29.887Z,9.35
2022-09-28T01:28:21.037Z,9.58
2022-09-28T01:31:15.289Z,9.39
2022-09-28T01:33:47.497Z,9.19
2022-09-28T01:36:25.215Z,9.07
2022-09-28T01:39:08.094Z,8.93
2022-09-28T01:41:38.470Z,9.13
2022-09-28T01:44:09.797Z,9.01
2022-09-28T01:46:42.101Z,9.05
2022-09-28T01:49:14.930Z,8.85
2022-09-28T01:51:59.176Z,8.98
2022-09-28T01:54:38.876Z,8.96
2022-09-28T01:57:11.999Z,8.96
2022-09-28T01:59:46.554Z,9.13
2022-09-28T02:02:18.908Z,8.92
2022-09-28T02:04:51.705Z,8.92
2022-09-28T02:07:20.744Z,8.87
2022-09-28T02:10:01.150Z,8.70
2022-09-28T02:12:36.083Z,8.78
2022-09-28T02:15:20.861Z,8.74
2022-09-28T02:17:48.119Z,8.72
2022-09-28T02:20:17.356Z,8.94
2022-09-28T02:22:49.396Z,8.80
2022-09-28T02:25:40.397Z,8.95
2022-09-28T02:28:11.173Z,8.84
2022-09-28T02:30:40.773Z,9.21
2022-09-28T02:33:22.663Z,9.39
2022-09-28T02:35:50.129Z,9.17
2022-09-28T02:38:20.317Z,9.15
2022-09-28T02:41:02.241Z,9.13
2022-09-28T02:43:50.122Z,8.96
2022-09-28T02:46:30.487Z,8.77
2022-09-28T02:49:21.861Z,8.67
2022-09-28T02:52:16.754Z,8.42
2022-09-28T02:54:54.275Z,8.39
2022-09-28T02:57:38.095Z,8.17
2022-09-28T03:00:33.774Z,8.22
2022-09-28T03:03:32.611Z,8.23
2022-09-28T03:06:05.285Z,8.23
2022-09-28T03:08:54.565Z,8.18
2022-09-28T03:11:53.548Z,8.18
2022-09-28T03:14:20.780Z,8.29
2022-09-28T03:16:53.996Z,8.41
2022-09-28T03:19:27.934Z,8.36
2022-09-28T03:21:55.826Z,8.43
2022-09-28T03:24:22.580Z,8.37
2022-09-28T03:26:49.855Z,8.44
2022-09-28T03:29:16.670Z,8.48
2022-09-28T03:31:47.931Z,8.56
2022-09-28T03:34:14.998Z,8.61
2022-09-28T03:36:43.052Z,8.54
2022-09-28T03:39:10.077Z,8.63
2022-09-28T03:41:38.284Z,8.60
2022-09-28T03:44:05.258Z,8.47
2022-09-28T03:46:33.160Z,8.43
2022-09-28T03:49:05.349Z,8.35
2022-09-28T03:51:32.088Z,8.31
2022-09-28T03:53:58.588Z,8.47
2022-09-28T03:56:26.429Z,8.45
2022-09-28T03:58:53.057Z,8.25
2022-09-28T04:01:20.319Z,8.03
2022-09-28T04:03:48.077Z,8.14
2022-09-28T04:06:15.663Z,8.19
2022-09-28T04:08:43.408Z,8.11
2022-09-28T04:11:10.651Z,8.04
2022-09-28T04:13:37.376Z,8.07
2022-09-28T04:16:06.458Z,8.05
2022-09-28T04:18:35.279Z,8.10
2022-09-28T04:21:11.161Z,8.03
2022-09-28T04:23:47.476Z,7.96
2022-09-28T04:26:22.655Z,7.65
2022-09-28T04:29:09.266Z,7.59
2022-09-28T04:31:45.949Z,7.60
2022-09-28T04:34:17.377Z,7.46
2022-09-28T04:36:45.469Z,7.59
2022-09-28T04:39:17.080Z,7.68
2022-09-28T04:41:53.684Z,7.76
2022-09-28T04:44:20.376Z,7.67
2022-09-28T04:46:49.152Z,7.77
2022-09-28T04:49:27.875Z,7.63
2022-09-28T04:52:18.693Z,7.86
2022-09-28T04:54:48.509Z,7.75
2022-09-28T04:57:16.285Z,7.93
2022-09-28T04:59:42.808Z,7.87
2022-09-28T05:02:09.637Z,7.86
2022-09-28T05:04:56.555Z,7.94
2022-09-28T05:07:42.879Z,8.02
2022-09-28T05:10:11.347Z,8.04
2022-09-28T05:12:39.711Z,8.00
2022-09-28T05:15:06.718Z,8.10
2022-09-28T05:17:33.780Z,7.99
2022-09-28T05:20:10.142Z,7.93
2022-09-28T05:22:37.011Z,7.94
2022-09-28T05:25:05.447Z,8.01
2022-09-28T05:27:43.400Z,8.20
2022-09-28T05:30:24.567Z,8.04
2022-09-28T05:33:05.710Z,8.04
2022-09-28T05:35:44.721Z,8.25
2022-09-28T05:38:11.546Z,8.36
2022-09-28T05:40:38.653Z,8.33
2022-09-28T05:43:05.590Z,8.50
2022-09-28T05:45:33.200Z,8.48
2022-09-28T05:48:00.503Z,8.49
2022-09-28T05:50:28.211Z,8.48
2022-09-28T05:53:02.811Z,8.60
2022-09-28T05:55:29.966Z,8.70
2022-09-28T05:58:01.373Z,8.70
2022-09-28T06:00:34.471Z,8.74
2022-09-28T06:03:09.198Z,8.62
2022-09-28T06:05:39.481Z,8.74
2022-09-28T06:08:08.428Z,8.69
2022-09-28T06:10:36.006Z,8.42
2022-09-28T06:13:03.307Z,8.25
2022-09-28T06:15:32.236Z,8.31
2022-09-28T06:18:06.431Z,8.40
2022-09-28T06:20:53.439Z,8.17
2022-09-28T06:23:30.546Z,8.35
2022-09-28T06:25:59.883Z,8.22
2022-09-28T06:28:27.185Z,8.36
2022-09-28T06:30:54.603Z,8.47
2022-09-28T06:33:22.047Z,8.60
2022-09-28T06:35:48.708Z,8.27
2022-09-28T06:38:16.231Z,8.51
2022-09-28T06:40:42.994Z,8.31
2022-09-28T06:43:11.803Z,8.36
2022-09-28T06:46:10.542Z,8.47
2022-09-28T06:48:55.971Z,8.56
2022-09-28T06:51:52.018Z,8.43
2022-09-28T09:08:13.557Z,10.85
2022-09-28T09:10:52.468Z,10.93
2022-09-28T09:13:40.493Z,10.98
2022-09-28T09:16:26.379Z,11.12
2022-09-28T09:19:14.683Z,11.14
2022-09-28T09:22:39.124Z,11.08
2022-09-28T09:25:18.278Z,11.13
2022-09-28T09:27:50.645Z,11.14
2022-09-28T09:30:28.698Z,11.20
2022-09-28T09:33:42.604Z,11.19
2022-09-28T09:37:03.305Z,11.26
2022-09-28T09:40:14.853Z,10.82
2022-09-28T09:43:27.928Z,11.05
2022-09-28T09:46:18.053Z,11.17
2022-09-28T09:49:12.247Z,11.27
2022-09-28T09:52:00.944Z,11.26
2022-09-28T09:54:42.179Z,11.25
2022-09-28T09:57:15.893Z,11.47
2022-09-28T10:00:03.235Z,11.65
2022-09-28T10:02:49.801Z,12.01
2022-09-28T10:05:35.871Z,11.40
2022-09-28T10:08:12.081Z,11.73
2022-09-28T10:10:49.579Z,12.03
2022-09-28T10:13:19.788Z,12.39
2022-09-28T10:15:47.874Z,12.45
2022-09-28T10:18:33.466Z,11.89
2022-09-28T10:21:15.598Z,11.71
2022-09-28T10:23:57.143Z,11.93
2022-09-28T10:26:40.821Z,12.03
2022-09-28T10:30:00.819Z,12.20
2022-09-28T10:32:39.165Z,12.26
2022-09-28T10:35:18.712Z,11.86
2022-09-28T10:38:03.322Z,11.89
2022-09-28T10:40:54.515Z,11.92
2022-09-28T10:44:08.668Z,11.90
2022-09-28T10:47:02.596Z,12.01
2022-09-28T10:49:47.239Z,11.95
2022-09-28T10:52:28.211Z,11.92
2022-09-28T10:54:55.922Z,12.25
2022-09-28T10:57:35.909Z,12.28
2022-09-28T11:00:08.162Z,12.06
2022-09-28T11:02:41.735Z,12.01
2022-09-28T11:05:28.023Z,12.09
2022-09-28T11:08:00.748Z,12.04
2022-09-28T11:10:34.755Z,11.88
2022-09-28T11:13:10.386Z,11.71
2022-09-28T11:15:46.214Z,11.44
2022-09-28T11:18:48.799Z,11.24
2022-09-28T11:22:18.393Z,11.06
2022-09-28T11:25:49.324Z,11.10
2022-09-28T11:30:54.860Z,10.88
2022-09-28T11:33:38.855Z,11.26
2022-09-28T11:36:46.798Z,11.21
2022-09-28T11:39:33.567Z,11.09
2022-09-28T11:43:01.706Z,11.05
2022-09-28T11:45:54.759Z,11.06
2022-09-28T11:48:34.692Z,11.17
2022-09-28T11:51:12.883Z,11.18
2022-09-28T11:53:45.606Z,11.15
2022-09-28T11:56:32.218Z,11.42
2022-09-28T11:59:06.151Z,11.23
2022-09-28T12:01:51.633Z,11.45
2022-09-28T12:04:38.527Z,11.45
2022-09-28T12:07:24.659Z,11.65
2022-09-28T12:09:57.848Z,11.98
2022-09-28T12:12:54.899Z,11.91
2022-09-28T12:15:25.725Z,12.04
2022-09-28T12:18:14.576Z,12.64
2022-09-28T12:21:05.340Z,12.89
2022-09-28T12:23:35.964Z,13.22
2022-09-28T12:26:26.272Z,13.55
2022-09-28T12:29:01.278Z,13.56
2022-09-28T12:31:50.726Z,13.72
2022-09-28T12:34:17.840Z,13.43
2022-09-28T12:37:02.912Z,13.63
2022-09-28T12:39:56.981Z,13.58
2022-09-28T12:42:29.199Z,13.72
2022-09-28T12:45:10.045Z,13.57
2022-09-28T12:48:07.968Z,13.93
2022-09-28T12:50:58.131Z,14.07
2022-09-28T12:53:29.784Z,14.77
2022-09-28T12:56:06.319Z,14.86
2022-09-28T12:58:48.444Z,14.66
2022-09-28T13:01:38.903Z,14.42
2022-09-28T13:04:13.504Z,15.11
2022-09-28T13:06:52.222Z,15.06
2022-09-28T13:09:25.657Z,14.74
2022-09-28T13:11:54.682Z,15.05
2022-09-28T13:14:43.878Z,15.07
2022-09-28T13:17:22.735Z,14.94
2022-09-28T13:19:55.330Z,15.41
2022-09-28T13:22:44.079Z,14.33
2022-09-28T13:25:20.021Z,14.35
2022-09-28T13:28:06.370Z,13.75
2022-09-28T13:30:36.612Z,14.28
2022-09-28T13:33:06.053Z,14.11
2022-09-28T13:35:46.897Z,14.09
2022-09-28T13:38:17.577Z,13.94
2022-09-28T13:41:06.008Z,13.77
2022-09-28T13:44:17.016Z,13.95
2022-09-28T13:47:26.488Z,14.12
2022-09-28T13:50:16.760Z,14.54
2022-09-28T13:52:54.543Z,13.94
2022-09-28T13:55:24.778Z,13.71
2022-09-28T13:58:01.060Z,13.32
2022-09-28T14:00:58.397Z,13.02
2022-09-28T14:03:27.524Z,13.10
2022-09-28T14:06:31.534Z,13.09
2022-09-28T14:09:14.062Z,13.08
2022-09-28T14:11:54.377Z,12.96
2022-09-28T14:14:44.546Z,13.58
2022-09-28T14:17:30.378Z,13.46
2022-09-28T14:20:12.931Z,13.59
2022-09-28T14:23:05.671Z,13.58
2022-09-28T14:25:45.651Z,13.59
2022-09-28T14:28:24.813Z,13.67
2022-09-28T14:30:56.813Z,13.59
2022-09-28T14:33:23.944Z,13.58
2022-09-28T14:36:45.647Z,14.25
2022-09-28T14:39:46.552Z,14.28
2022-09-28T14:42:21.520Z,13.65
2022-09-28T14:45:06.368Z,13.49
2022-09-28T14:47:40.664Z,13.76
2022-09-28T14:50:30.108Z,14.19
2022-09-28T14:53:12.430Z,14.00
2022-09-28T14:55:48.191Z,13.71
2022-09-28T14:58:19.791Z,13.48
2022-09-28T15:00:49.115Z,13.45
2022-09-28T15:03:17.268Z,13.44
2022-09-28T15:05:49.631Z,13.49
2022-09-28T15:08:21.037Z,13.43
2022-09-28T15:10:49.997Z,13.84
2022-09-28T15:13:27.453Z,13.51
2022-09-28T15:16:16.678Z,13.34
2022-09-28T15:19:13.609Z,13.33
2022-09-28T15:21:50.372Z,13.88
2022-09-28T15:24:32.475Z,13.32
2022-09-28T15:27:02.622Z,13.55
2022-09-28T15:29:33.355Z,13.37
2022-09-28T15:32:00.321Z,13.68
2022-09-28T15:34:52.129Z,13.37
2022-09-28T15:37:24.098Z,13.57
2022-09-28T15:39:52.930Z,13.36
2022-09-28T15:42:20.540Z,13.26
2022-09-28T15:45:26.958Z,13.29
2022-09-28T15:48:19.139Z,13.49
2022-09-28T15:51:13.086Z,13.40
2022-09-28T15:54:09.364Z,13.45
2022-09-28T15:56:59.945Z,13.50
2022-09-28T15:59:40.224Z,13.38
2022-09-28T16:02:16.802Z,13.32
2022-09-28T16:04:50.673Z,13.42
2022-09-28T16:07:25.307Z,13.46
2022-09-28T16:10:01.899Z,13.39
2022-09-28T16:12:37.724Z,13.33
2022-09-28T16:15:21.799Z,13.46
2022-09-28T16:17:54.028Z,13.57
2022-09-28T16:20:23.184Z,13.54
2022-09-28T16:22:50.749Z,13.34
2022-09-28T16:25:24.732Z,13.33
2022-09-28T16:27:54.228Z,13.17
2022-09-28T16:30:24.954Z,13.11
2022-09-28T16:32:56.476Z,12.77
2022-09-28T16:35:25.788Z,12.73
2022-09-28T16:38:14.438Z,12.71
2022-09-28T16:40:43.250Z,12.69
2022-09-28T16:43:19.461Z,12.52
2022-09-28T16:45:46.523Z,12.16
2022-09-28T16:48:20.406Z,12.17
2022-09-28T16:50:47.529Z,12.13
2022-09-28T16:53:35.822Z,11.86
2022-09-28T16:56:04.483Z,11.71
2022-09-28T16:58:32.066Z,11.48
2022-09-28T17:01:00.153Z,11.27
2022-09-28T17:03:28.166Z,11.26
2022-09-28T17:05:55.760Z,11.18
2022-09-28T17:08:24.821Z,10.97
2022-09-28T17:11:16.927Z,10.87
2022-09-28T17:13:46.110Z,10.66
2022-09-28T17:16:17.747Z,10.69
2022-09-28T17:18:46.067Z,10.64
2022-09-28T17:21:18.519Z,10.63
2022-09-28T17:23:46.926Z,10.73
2022-09-28T17:26:31.026Z,10.67
2022-09-28T17:28:59.501Z,10.82
2022-09-28T17:31:26.834Z,10.77
2022-09-28T17:33:54.747Z,10.87
2022-09-28T17:36:22.217Z,10.81
2022-09-28T17:38:51.192Z,10.62
2022-09-28T17:41:20.797Z,10.55
2022-09-28T17:43:49.063Z,10.45
2022-09-28T17:46:29.083Z,10.27
2022-09-28T17:48:59.655Z,10.19
2022-09-28T17:51:35.174Z,10.08
2022-09-28T17:54:02.290Z,10.10
2022-09-28T17:56:32.506Z,10.16
2022-09-28T17:59:02.974Z,10.14
2022-09-28T18:01:34.328Z,9.89
2022-09-28T18:04:03.187Z,9.91
2022-09-28T18:06:30.119Z,9.84
2022-09-28T18:08:56.738Z,9.69
2022-09-28T18:11:23.318Z,9.75
2022-09-28T18:13:49.895Z,9.72
2022-09-28T18:16:19.736Z,9.65
2022-09-28T18:18:47.426Z,9.46
2022-09-28T18:21:14.223Z,9.45
2022-09-28T18:23:41.166Z,9.52
2022-09-28T18:26:13.022Z,9.39
2022-09-28T18:28:40.267Z,9.54
2022-09-28T18:31:11.638Z,9.53
2022-09-28T18:33:38.836Z,9.43
2022-09-28T18:36:07.043Z,9.53
2022-09-28T18:38:37.673Z,9.42
2022-09-28T18:41:22.955Z,9.49
2022-09-28T18:43:50.419Z,9.44
2022-09-28T18:46:18.435Z,9.26
2022-09-28T18:48:46.396Z,9.05
2022-09-28T18:51:13.379Z,8.81
2022-09-28T18:53:40.492Z,8.83
2022-09-28T18:56:12.472Z,8.73
2022-09-28T18:58:40.516Z,8.95
2022-09-28T19:01:28.946Z,8.69
2022-09-28T19:03:56.744Z,8.54
2022-09-28T19:06:23.478Z,8.52
2022-09-28T19:08:55.692Z,8.68
2022-09-28T19:11:23.848Z,8.77
2022-09-28T19:13:53.370Z,8.55
2022-09-28T19:16:25.734Z,8.36
2022-09-28T19:18:53.906Z,8.67
2022-09-28T19:21:21.094Z,8.78
2022-09-28T19:23:49.954Z,8.91
2022-09-28T19:26:20.401Z,9.07
2022-09-28T19:28:48.663Z,9.15
2022-09-28T19:31:16.204Z,9.12
2022-09-28T19:33:45.879Z,9.24
2022-09-28T19:36:19.039Z,9.33
2022-09-28T19:38:46.230Z,9.11
2022-09-28T19:41:39.597Z,8.80
2022-09-28T19:44:29.983Z,8.87
2022-09-28T19:47:04.251Z,8.68
2022-09-28T19:49:33.299Z,8.84
2022-09-28T19:52:16.177Z,8.80
2022-09-28T19:54:45.520Z,8.88
2022-09-28T19:57:14.493Z,9.05
2022-09-28T19:59:41.623Z,9.17
2022-09-28T20:02:10.465Z,9.48
2022-09-28T20:04:37.485Z,9.41
2022-09-28T20:07:05.237Z,9.29
2022-09-28T20:09:33.259Z,9.40
2022-09-28T20:12:05.239Z,9.32
2022-09-28T20:14:36.537Z,9.71
2022-09-28T20:17:06.162Z,9.95
2022-09-28T20:19:33.669Z,9.76
2022-09-28T20:22:02.856Z,9.66
2022-09-28T20:24:31.559Z,9.47
2022-09-28T20:26:58.733Z,9.48
2022-09-28T20:29:25.579Z,9.54
2022-09-28T20:31:52.315Z,9.64
2022-09-28T20:34:18.944Z,9.63
2022-09-28T20:36:45.745Z,9.57
2022-09-28T20:39:13.018Z,9.57
2022-09-28T20:41:40.298Z,9.56
2022-09-28T20:44:07.273Z,9.38
2022-09-28T20:46:35.526Z,9.41
2022-09-28T20:49:03.070Z,9.46
2022-09-28T20:51:30.085Z,9.38
2022-09-28T20:53:59.239Z,9.18
2022-09-28T20:56:26.898Z,9.12
2022-09-28T20:58:54.380Z,9.24
2022-09-28T21:01:30.282Z,8.90
2022-09-28T21:03:59.553Z,8.89
2022-09-28T21:06:29.553Z,8.77
2022-09-28T21:08:56.774Z,8.87
2022-09-28T21:11:25.334Z,8.74
2022-09-28T21:13:53.751Z,8.69
2022-09-28T21:16:20.707Z,8.70
2022-09-28T21:18:47.904Z,8.67
2022-09-28T21:21:17.106Z,8.68
2022-09-28T21:23:46.675Z,8.72
2022-09-28T21:26:27.565Z,8.55
2022-09-28T21:29:01.270Z,8.44
2022-09-28T21:31:31.955Z,8.26
2022-09-28T21:33:59.976Z,8.13
2022-09-28T21:36:26.795Z,7.96
2022-09-28T21:38:56.197Z,8.10
2022-09-28T21:41:26.138Z,8.08
2022-09-28T21:43:53.089Z,7.89
2022-09-28T21:46:20.010Z,7.57
2022-09-28T21:48:50.704Z,7.69
2022-09-28T21:51:17.657Z,8.00
2022-09-28T21:53:44.398Z,8.13
2022-09-28T21:56:11.913Z,8.20
2022-09-28T21:58:40.160Z,8.17
2022-09-28T22:01:13.193Z,8.21
2022-09-28T22:03:41.250Z,8.21
2022-09-28T22:06:08.562Z,8.23
2022-09-28T22:08:36.934Z,8.26
2022-09-28T22:11:05.711Z,8.23
2022-09-28T22:13:43.199Z,8.10
2022-09-28T22:16:11.477Z,7.96
2022-09-28T22:18:38.918Z,7.99
2022-09-28T22:21:08.906Z,8.11
2022-09-28T22:23:36.631Z,8.10
2022-09-28T22:26:07.072Z,8.19
2022-09-28T22:28:34.817Z,8.19
2022-09-28T22:31:01.736Z,8.10
2022-09-28T22:33:28.634Z,7.96
2022-09-28T22:35:55.520Z,7.84
2022-09-28T22:38:24.659Z,7.82
2022-09-28T22:40:54.645Z,7.85
2022-09-28T22:43:26.204Z,7.88
2022-09-28T22:46:06.697Z,8.01
2022-09-28T22:48:34.928Z,8.14
2022-09-28T22:51:03.058Z,8.13
2022-09-28T22:53:30.424Z,8.18
2022-09-28T22:55:59.030Z,8.16
2022-09-28T22:58:25.703Z,7.84
2022-09-28T23:00:52.572Z,8.00
2022-09-28T23:03:19.143Z,8.23
2022-09-28T23:05:54.145Z,8.32
2022-09-28T23:08:21.326Z,8.55
2022-09-28T23:10:48.059Z,8.41
2022-09-28T23:13:14.750Z,8.37
2022-09-28T23:15:41.543Z,8.56
2022-09-28T23:18:12.443Z,8.53
2022-09-28T23:20:39.739Z,8.33
2022-09-28T23:23:06.722Z,8.12
2022-09-28T23:25:33.645Z,8.25
2022-09-28T23:28:01.398Z,8.28
2022-09-28T23:30:28.123Z,8.40
2022-09-28T23:32:54.953Z,8.58
2022-09-28T23:35:21.848Z,8.63
2022-09-28T23:37:51.981Z,8.52
2022-09-28T23:40:18.965Z,8.59
2022-09-28T23:42:45.607Z,8.54
2022-09-28T23:45:12.225Z,8.62
2022-09-28T23:47:40.512Z,8.51
2022-09-28T23:50:07.799Z,8.39
2022-09-28T23:52:35.063Z,8.32
2022-09-28T23:55:01.853Z,8.10
2022-09-28T23:57:29.069Z,8.23
2022-09-28T23:59:55.915Z,8.18
